sensor_id;sensor_type;location;lat;lon;timestamp;pressure;altitude;pressure_sealevel;temperature;humidity
29909;BME280;36247;51.952;6.146;2023-02-21T00:01:36;101893.25;;;8.09;100.00
29909;BME280;36247;51.952;6.146;2023-02-21T00:04:20;101897.66;;;8.10;100.00
29909;BME280;36247;51.952;6.146;2023-02-21T00:07:04;101895.03;;;8.10;100.00
29909;BME280;36247;51.952;6.146;2023-02-21T00:09:48;101888.81;;;8.08;100.00
29909;BME280;36247;51.952;6.146;2023-02-21T00:12:32;101887.06;;;8.09;100.00
29909;BME280;36247;51.952;6.146;2023-02-21T00:15:16;101894.09;;;8.08;100.00
29909;BME280;36247;51.952;6.146;2023-02-21T00:18:00;101885.28;;;8.08;100.00
29909;BME280;36247;51.952;6.146;2023-02-21T00:20:44;101894.09;;;8.08;100.00
29909;BME280;36247;51.952;6.146;2023-02-21T00:23:33;101885.16;;;8.05;100.00
29909;BME280;36247;51.952;6.146;2023-02-21T00:26:18;101879.88;;;8.05;100.00
29909;BME280;36247;51.952;6.146;2023-02-21T00:29:02;101886.94;;;8.06;100.00
29909;BME280;36247;51.952;6.146;2023-02-21T00:31:45;101885.16;;;8.05;100.00
29909;BME280;36247;51.952;6.146;2023-02-21T00:34:29;101878.13;;;8.05;100.00
29909;BME280;36247;51.952;6.146;2023-02-21T00:37:13;101879.00;;;8.06;100.00
29909;BME280;36247;51.952;6.146;2023-02-21T00:39:57;101873.59;;;8.03;100.00
29909;BME280;36247;51.952;6.146;2023-02-21T00:42:41;101883.28;;;8.02;100.00
29909;BME280;36247;51.952;6.146;2023-02-21T00:45:25;101881.41;;;8.00;100.00
29909;BME280;36247;51.952;6.146;2023-02-21T00:48:09;101878.75;;;8.00;100.00
29909;BME280;36247;51.952;6.146;2023-02-21T00:50:53;101883.16;;;7.99;100.00
29909;BME280;36247;51.952;6.146;2023-02-21T00:53:37;101878.75;;;8.00;100.00
29909;BME280;36247;51.952;6.146;2023-02-21T00:56:21;101882.25;;;7.99;100.00
29909;BME280;36247;51.952;6.146;2023-02-21T00:59:04;101883.91;;;7.97;100.00
29909;BME280;36247;51.952;6.146;2023-02-21T01:01:48;101866.34;;;7.97;100.00
29909;BME280;36247;51.952;6.146;2023-02-21T01:04:32;101854.94;;;7.98;100.00
29909;BME280;36247;51.952;6.146;2023-02-21T01:07:16;101865.50;;;7.98;100.00
29909;BME280;36247;51.952;6.146;2023-02-21T01:10:00;101869.06;;;7.99;100.00
29909;BME280;36247;51.952;6.146;2023-02-21T01:12:44;101866.44;;;7.99;100.00
29909;BME280;36247;51.952;6.146;2023-02-21T01:15:28;101866.34;;;7.97;100.00
29909;BME280;36247;51.952;6.146;2023-02-21T01:18:12;101861.06;;;7.97;100.00
29909;BME280;36247;51.952;6.146;2023-02-21T01:20:56;101859.34;;;7.98;100.00
29909;BME280;36247;51.952;6.146;2023-02-21T01:23:40;101876.00;;;7.97;100.00
29909;BME280;36247;51.952;6.146;2023-02-21T01:26:24;101856.59;;;7.94;100.00
29909;BME280;36247;51.952;6.146;2023-02-21T01:29:08;101872.53;;;7.98;100.00
29909;BME280;36247;51.952;6.146;2023-02-21T01:31:52;101862.69;;;7.93;100.00
29909;BME280;36247;51.952;6.146;2023-02-21T01:34:37;101869.78;;;7.94;100.00
29909;BME280;36247;51.952;6.146;2023-02-21T01:37:22;101869.78;;;7.94;100.00
29909;BME280;36247;51.952;6.146;2023-02-21T01:40:07;101864.38;;;7.91;100.00
29909;BME280;36247;51.952;6.146;2023-02-21T01:42:51;101857.34;;;7.92;100.00
29909;BME280;36247;51.952;6.146;2023-02-21T01:48:20;101850.25;;;7.91;100.00
29909;BME280;36247;51.952;6.146;2023-02-21T01:51:07;101838.75;;;7.89;100.00
29909;BME280;36247;51.952;6.146;2023-02-21T01:53:54;101840.63;;;7.91;100.00
29909;BME280;36247;51.952;6.146;2023-02-21T01:56:39;101845.84;;;7.90;100.00
29909;BME280;36247;51.952;6.146;2023-02-21T01:59:24;101842.22;;;7.88;100.00
29909;BME280;36247;51.952;6.146;2023-02-21T02:02:32;101846.53;;;7.86;100.00
29909;BME280;36247;51.952;6.146;2023-02-21T02:05:19;101845.66;;;7.85;100.00
29909;BME280;36247;51.952;6.146;2023-02-21T02:08:03;101834.25;;;7.86;100.00
29909;BME280;36247;51.952;6.146;2023-02-21T02:10:55;101836.00;;;7.86;100.00
29909;BME280;36247;51.952;6.146;2023-02-21T02:16:52;101831.59;;;7.86;100.00
29909;BME280;36247;51.952;6.146;2023-02-21T02:19:47;101824.56;;;7.85;100.00
29909;BME280;36247;51.952;6.146;2023-02-21T02:22:39;101819.22;;;7.84;100.00
29909;BME280;36247;51.952;6.146;2023-02-21T02:25:33;101819.22;;;7.84;100.00
29909;BME280;36247;51.952;6.146;2023-02-21T02:28:32;101814.75;;;7.83;100.00
29909;BME280;36247;51.952;6.146;2023-02-21T02:34:22;101811.09;;;7.79;100.00
29909;BME280;36247;51.952;6.146;2023-02-21T02:42:31;101813.72;;;7.79;100.00
29909;BME280;36247;51.952;6.146;2023-02-21T02:45:07;101802.22;;;7.77;100.00
29909;BME280;36247;51.952;6.146;2023-02-21T02:47:37;101813.59;;;7.76;100.00
29909;BME280;36247;51.952;6.146;2023-02-21T02:50:05;101812.72;;;7.75;100.00
29909;BME280;36247;51.952;6.146;2023-02-21T02:52:34;101822.25;;;7.72;100.00
29909;BME280;36247;51.952;6.146;2023-02-21T02:55:02;101822.31;;;7.73;100.00
29909;BME280;36247;51.952;6.146;2023-02-21T02:57:31;101816.22;;;7.76;100.00
29909;BME280;36247;51.952;6.146;2023-02-21T03:00:06;101825.84;;;7.74;100.00
29909;BME280;36247;51.952;6.146;2023-02-21T03:05:37;101806.41;;;7.72;100.00
29909;BME280;36247;51.952;6.146;2023-02-21T03:08:29;101812.53;;;7.71;100.00
29909;BME280;36247;51.952;6.146;2023-02-21T03:11:11;101818.75;;;7.73;100.00
29909;BME280;36247;51.952;6.146;2023-02-21T03:13:43;101810.00;;;7.74;100.00
29909;BME280;36247;51.952;6.146;2023-02-21T03:16:32;101827.53;;;7.72;100.00
29909;BME280;36247;51.952;6.146;2023-02-21T03:19:11;101813.47;;;7.73;100.00
29909;BME280;36247;51.952;6.146;2023-02-21T03:21:42;101823.91;;;7.70;100.00
29909;BME280;36247;51.952;6.146;2023-02-21T03:24:12;101817.78;;;7.71;100.00
29909;BME280;36247;51.952;6.146;2023-02-21T03:26:41;101830.97;;;7.71;100.00
29909;BME280;36247;51.952;6.146;2023-02-21T03:29:36;101819.53;;;7.70;100.00
29909;BME280;36247;51.952;6.146;2023-02-21T03:32:10;101821.25;;;7.70;100.00
29909;BME280;36247;51.952;6.146;2023-02-21T03:34:38;101822.13;;;7.69;100.00
29909;BME280;36247;51.952;6.146;2023-02-21T03:37:05;101819.38;;;7.67;100.00
29909;BME280;36247;51.952;6.146;2023-02-21T03:39:31;101816.69;;;7.66;100.00
29909;BME280;36247;51.952;6.146;2023-02-21T03:41:57;101813.16;;;7.65;100.00
29909;BME280;36247;51.952;6.146;2023-02-21T03:44:22;101828.94;;;7.64;100.00
29909;BME280;36247;51.952;6.146;2023-02-21T03:46:48;101824.53;;;7.64;100.00
29909;BME280;36247;51.952;6.146;2023-02-21T03:49:13;101813.94;;;7.63;100.00
29909;BME280;36247;51.952;6.146;2023-02-21T03:51:39;101824.34;;;7.59;100.00
29909;BME280;36247;51.952;6.146;2023-02-21T03:54:05;101818.25;;;7.61;100.00
29909;BME280;36247;51.952;6.146;2023-02-21T03:56:38;101821.59;;;7.56;100.00
29909;BME280;36247;51.952;6.146;2023-02-21T03:59:14;101824.16;;;7.55;100.00
29909;BME280;36247;51.952;6.146;2023-02-21T04:01:39;101832.94;;;7.54;100.00
29909;BME280;36247;51.952;6.146;2023-02-21T04:04:05;101822.38;;;7.54;100.00
29909;BME280;36247;51.952;6.146;2023-02-21T04:06:30;101824.03;;;7.52;100.00
29909;BME280;36247;51.952;6.146;2023-02-21T04:08:57;101823.28;;;7.54;100.00
29909;BME280;36247;51.952;6.146;2023-02-21T04:11:24;101824.03;;;7.52;100.00
29909;BME280;36247;51.952;6.146;2023-02-21T04:13:51;101813.50;;;7.52;100.00
29909;BME280;36247;51.952;6.146;2023-02-21T04:16:17;101816.19;;;7.53;100.00
29909;BME280;36247;51.952;6.146;2023-02-21T04:18:44;101828.41;;;7.51;100.00
29909;BME280;36247;51.952;6.146;2023-02-21T04:21:15;101818.00;;;7.54;100.00
29909;BME280;36247;51.952;6.146;2023-02-21T04:23:41;101819.81;;;7.55;100.00
29909;BME280;36247;51.952;6.146;2023-02-21T04:26:07;101817.94;;;7.53;100.00
29909;BME280;36247;51.952;6.146;2023-02-21T04:28:39;101817.00;;;7.52;100.00
29909;BME280;36247;51.952;6.146;2023-02-21T04:31:04;101816.13;;;7.52;100.00
29909;BME280;36247;51.952;6.146;2023-02-21T04:33:30;101810.84;;;7.52;100.00
29909;BME280;36247;51.952;6.146;2023-02-21T04:35:56;101816.06;;;7.50;100.00
29909;BME280;36247;51.952;6.146;2023-02-21T04:38:25;101815.22;;;7.51;100.00
29909;BME280;36247;51.952;6.146;2023-02-21T04:40:51;101807.44;;;7.54;100.00
29909;BME280;36247;51.952;6.146;2023-02-21T04:43:16;101822.22;;;7.51;100.00
29909;BME280;36247;51.952;6.146;2023-02-21T04:45:42;101815.09;;;7.48;100.00
29909;BME280;36247;51.952;6.146;2023-02-21T04:48:07;101814.25;;;7.49;100.00
29909;BME280;36247;51.952;6.146;2023-02-21T04:50:33;101817.75;;;7.48;100.00
29909;BME280;36247;51.952;6.146;2023-02-21T04:52:58;101815.03;;;7.47;100.00
29909;BME280;36247;51.952;6.146;2023-02-21T04:55:24;101812.47;;;7.48;100.00
29909;BME280;36247;51.952;6.146;2023-02-21T04:57:49;101806.28;;;7.48;100.00
29909;BME280;36247;51.952;6.146;2023-02-21T05:00:15;101812.41;;;7.47;100.00
29909;BME280;36247;51.952;6.146;2023-02-21T05:02:44;101810.66;;;7.47;100.00
29909;BME280;36247;51.952;6.146;2023-02-21T05:05:10;101806.22;;;7.46;100.00
29909;BME280;36247;51.952;6.146;2023-02-21T05:07:36;101821.22;;;7.47;100.00
29909;BME280;36247;51.952;6.146;2023-02-21T05:10:02;101818.69;;;7.50;100.00
29909;BME280;36247;51.952;6.146;2023-02-21T05:12:30;101815.16;;;7.50;100.00
29909;BME280;36247;51.952;6.146;2023-02-21T05:14:56;101819.59;;;7.51;100.00
29909;BME280;36247;51.952;6.146;2023-02-21T05:17:21;101824.78;;;7.49;100.00
29909;BME280;36247;51.952;6.146;2023-02-21T05:19:47;101825.72;;;7.50;100.00
29909;BME280;36247;51.952;6.146;2023-02-21T05:22:12;101824.78;;;7.49;100.00
29909;BME280;36247;51.952;6.146;2023-02-21T05:24:40;101824.91;;;7.52;100.00
29909;BME280;36247;51.952;6.146;2023-02-21T05:27:09;101831.19;;;7.54;100.00
29909;BME280;36247;51.952;6.146;2023-02-21T05:29:36;101824.91;;;7.52;100.00
29909;BME280;36247;51.952;6.146;2023-02-21T05:32:02;101825.78;;;7.51;100.00
29909;BME280;36247;51.952;6.146;2023-02-21T05:34:28;101816.94;;;7.51;100.00
29909;BME280;36247;51.952;6.146;2023-02-21T05:36:53;101819.47;;;7.48;100.00
29909;BME280;36247;51.952;6.146;2023-02-21T05:39:19;101819.53;;;7.49;100.00
29909;BME280;36247;51.952;6.146;2023-02-21T05:41:48;101818.63;;;7.49;100.00
29909;BME280;36247;51.952;6.146;2023-02-21T05:44:13;101816.00;;;7.49;100.00
29909;BME280;36247;51.952;6.146;2023-02-21T05:46:39;101824.78;;;7.49;100.00
29909;BME280;36247;51.952;6.146;2023-02-21T05:49:05;101820.44;;;7.50;100.00
29909;BME280;36247;51.952;6.146;2023-02-21T05:51:38;101823.78;;;7.46;100.00
29909;BME280;36247;51.952;6.146;2023-02-21T05:54:05;101824.78;;;7.49;100.00
29909;BME280;36247;51.952;6.146;2023-02-21T05:56:42;101817.88;;;7.51;100.00
29909;BME280;36247;51.952;6.146;2023-02-21T05:59:08;101823.22;;;7.53;100.00
29909;BME280;36247;51.952;6.146;2023-02-21T06:01:34;101820.50;;;7.51;100.00
29909;BME280;36247;51.952;6.146;2023-02-21T06:04:00;101833.75;;;7.53;100.00
29909;BME280;36247;51.952;6.146;2023-02-21T06:06:26;101828.41;;;7.51;100.00
29909;BME280;36247;51.952;6.146;2023-02-21T06:08:51;101825.91;;;7.54;100.00
29909;BME280;36247;51.952;6.146;2023-02-21T06:11:28;101836.13;;;7.47;100.00
29909;BME280;36247;51.952;6.146;2023-02-21T06:13:56;101828.34;;;7.50;100.00
29909;BME280;36247;51.952;6.146;2023-02-21T06:16:22;101822.81;;;7.44;100.00
29909;BME280;36247;51.952;6.146;2023-02-21T06:18:53;101828.16;;;7.45;100.00
29909;BME280;36247;51.952;6.146;2023-02-21T06:21:19;101828.03;;;7.42;100.00
29909;BME280;36247;51.952;6.146;2023-02-21T06:23:44;101826.47;;;7.47;100.00
29909;BME280;36247;51.952;6.146;2023-02-21T06:26:10;101825.59;;;7.47;100.00
29909;BME280;36247;51.952;6.146;2023-02-21T06:28:35;101826.41;;;7.46;100.00
29909;BME280;36247;51.952;6.146;2023-02-21T06:31:02;101823.78;;;7.46;100.00
29909;BME280;36247;51.952;6.146;2023-02-21T06:33:28;101823.59;;;7.41;100.00
29909;BME280;36247;51.952;6.146;2023-02-21T06:35:53;101826.34;;;7.44;100.00
29909;BME280;36247;51.952;6.146;2023-02-21T06:38:19;101821.84;;;7.41;100.00
29909;BME280;36247;51.952;6.146;2023-02-21T06:40:44;101827.06;;;7.40;100.00
29909;BME280;36247;51.952;6.146;2023-02-21T06:43:10;101826.84;;;7.35;100.00
29909;BME280;36247;51.952;6.146;2023-02-21T06:45:35;101830.44;;;7.37;100.00
29909;BME280;36247;51.952;6.146;2023-02-21T06:48:01;101828.72;;;7.38;100.00
29909;BME280;36247;51.952;6.146;2023-02-21T06:50:26;101831.38;;;7.38;100.00
29909;BME280;36247;51.952;6.146;2023-02-21T06:52:51;101835.88;;;7.40;100.00
29909;BME280;36247;51.952;6.146;2023-02-21T06:55:21;101828.72;;;7.38;100.00
29909;BME280;36247;51.952;6.146;2023-02-21T06:57:47;101833.75;;;7.32;100.00
29909;BME280;36247;51.952;6.146;2023-02-21T07:00:13;101832.88;;;7.33;100.00
29909;BME280;36247;51.952;6.146;2023-02-21T07:02:38;101835.66;;;7.36;100.00
29909;BME280;36247;51.952;6.146;2023-02-21T07:05:04;101830.25;;;7.33;100.00
29909;BME280;36247;51.952;6.146;2023-02-21T07:07:30;101838.22;;;7.34;100.00
29909;BME280;36247;51.952;6.146;2023-02-21T07:09:55;101832.94;;;7.34;100.00
29909;BME280;36247;51.952;6.146;2023-02-21T07:12:21;101830.44;;;7.37;100.00
29909;BME280;36247;51.952;6.146;2023-02-21T07:14:46;101839.97;;;7.34;100.00
29909;BME280;36247;51.952;6.146;2023-02-21T07:17:12;101833.88;;;7.35;100.00
29909;BME280;36247;51.952;6.146;2023-02-21T07:19:37;101840.22;;;7.40;100.00
29909;BME280;36247;51.952;6.146;2023-02-21T07:22:03;101842.88;;;7.40;100.00
29909;BME280;36247;51.952;6.146;2023-02-21T07:24:28;101842.81;;;7.38;100.00
29909;BME280;36247;51.952;6.146;2023-02-21T07:26:54;101833.19;;;7.39;100.00
29909;BME280;36247;51.952;6.146;2023-02-21T07:29:20;101840.09;;;7.37;100.00
29909;BME280;36247;51.952;6.146;2023-02-21T07:31:45;101849.81;;;7.38;100.00
29909;BME280;36247;51.952;6.146;2023-02-21T07:34:11;101848.91;;;7.37;100.00
29909;BME280;36247;51.952;6.146;2023-02-21T07:36:37;101840.28;;;7.41;100.00
29909;BME280;36247;51.952;6.146;2023-02-21T07:39:03;101847.25;;;7.39;100.00
29909;BME280;36247;51.952;6.146;2023-02-21T07:41:28;101851.63;;;7.39;100.00
29909;BME280;36247;51.952;6.146;2023-02-21T07:43:54;101847.19;;;7.38;100.00
29909;BME280;36247;51.952;6.146;2023-02-21T07:46:19;101859.25;;;7.33;100.00
29909;BME280;36247;51.952;6.146;2023-02-21T07:48:45;101868.16;;;7.35;100.00
29909;BME280;36247;51.952;6.146;2023-02-21T07:51:10;101864.53;;;7.33;100.00
29909;BME280;36247;51.952;6.146;2023-02-21T07:53:36;101854.91;;;7.33;100.00
29909;BME280;36247;51.952;6.146;2023-02-21T07:56:03;101855.09;;;7.38;100.00
29909;BME280;36247;51.952;6.146;2023-02-21T07:58:28;101858.50;;;7.35;100.00
29909;BME280;36247;51.952;6.146;2023-02-21T08:00:54;101852.31;;;7.35;100.00
29909;BME280;36247;51.952;6.146;2023-02-21T08:03:20;101854.97;;;7.35;100.00
29909;BME280;36247;51.952;6.146;2023-02-21T08:05:46;101843.44;;;7.33;100.00
29909;BME280;36247;51.952;6.146;2023-02-21T08:08:13;101853.41;;;7.40;100.00
29909;BME280;36247;51.952;6.146;2023-02-21T08:10:38;101846.25;;;7.37;100.00
29909;BME280;36247;51.952;6.146;2023-02-21T08:13:04;101843.50;;;7.34;100.00
29909;BME280;36247;51.952;6.146;2023-02-21T08:15:30;101845.38;;;7.37;100.00
29909;BME280;36247;51.952;6.146;2023-02-21T08:17:55;101839.41;;;7.41;100.00
29909;BME280;36247;51.952;6.146;2023-02-21T08:20:21;101843.78;;;7.40;100.00
29909;BME280;36247;51.952;6.146;2023-02-21T08:22:46;101844.63;;;7.39;100.00
29909;BME280;36247;51.952;6.146;2023-02-21T08:25:13;101839.34;;;7.39;100.00
29909;BME280;36247;51.952;6.146;2023-02-21T08:27:39;101835.09;;;7.43;100.00
29909;BME280;36247;51.952;6.146;2023-02-21T08:30:06;101841.41;;;7.47;100.00
29909;BME280;36247;51.952;6.146;2023-02-21T08:32:33;101849.50;;;7.51;100.00
29909;BME280;36247;51.952;6.146;2023-02-21T08:34:59;101842.44;;;7.50;100.00
29909;BME280;36247;51.952;6.146;2023-02-21T08:37:25;101837.84;;;7.46;100.00
29909;BME280;36247;51.952;6.146;2023-02-21T08:39:57;101843.31;;;7.51;100.00
29909;BME280;36247;51.952;6.146;2023-02-21T08:42:23;101838.84;;;7.48;100.00
29909;BME280;36247;51.952;6.146;2023-02-21T08:44:48;101839.91;;;7.53;100.00
29909;BME280;36247;51.952;6.146;2023-02-21T08:47:15;101843.19;;;7.48;100.00
29909;BME280;36247;51.952;6.146;2023-02-21T08:49:44;101839.66;;;7.47;100.00
29909;BME280;36247;51.952;6.146;2023-02-21T08:52:11;101838.03;;;7.51;100.00
29909;BME280;36247;51.952;6.146;2023-02-21T08:54:37;101831.81;;;7.49;100.00
29909;BME280;36247;51.952;6.146;2023-02-21T08:57:03;101837.84;;;7.46;100.00
29909;BME280;36247;51.952;6.146;2023-02-21T08:59:28;101831.94;;;7.52;100.00
29909;BME280;36247;51.952;6.146;2023-02-21T09:01:58;101834.66;;;7.53;100.00
29909;BME280;36247;51.952;6.146;2023-02-21T09:04:24;101837.28;;;7.53;100.00
29909;BME280;36247;51.952;6.146;2023-02-21T09:06:52;101820.94;;;7.62;100.00
29909;BME280;36247;51.952;6.146;2023-02-21T09:09:17;101833.81;;;7.54;100.00
29909;BME280;36247;51.952;6.146;2023-02-21T09:11:43;101830.47;;;7.58;100.00
29909;BME280;36247;51.952;6.146;2023-02-21T09:14:11;101828.03;;;7.63;100.00
29909;BME280;36247;51.952;6.146;2023-02-21T09:16:37;101830.53;;;7.60;100.00
29909;BME280;36247;51.952;6.146;2023-02-21T09:19:03;101835.75;;;7.58;100.00
29909;BME280;36247;51.952;6.146;2023-02-21T09:21:32;101831.69;;;7.67;100.00
29909;BME280;36247;51.952;6.146;2023-02-21T09:23:58;101825.59;;;7.68;100.00
29909;BME280;36247;51.952;6.146;2023-02-21T09:26:25;101827.53;;;7.72;100.00
29909;BME280;36247;51.952;6.146;2023-02-21T09:28:51;101828.34;;;7.71;100.00
29909;BME280;36247;51.952;6.146;2023-02-21T09:31:17;101819.25;;;7.64;100.00
29909;BME280;36247;51.952;6.146;2023-02-21T09:33:44;101820.44;;;7.71;100.00
29909;BME280;36247;51.952;6.146;2023-02-21T09:36:10;101819.38;;;7.67;100.00
29909;BME280;36247;51.952;6.146;2023-02-21T09:38:35;101809.31;;;7.78;100.00
29909;BME280;36247;51.952;6.146;2023-02-21T09:41:04;101813.59;;;7.76;100.00
29909;BME280;36247;51.952;6.146;2023-02-21T09:46:04;101804.09;;;7.80;100.00
29909;BME280;36247;51.952;6.146;2023-02-21T09:48:31;101814.75;;;7.83;100.00
29909;BME280;36247;51.952;6.146;2023-02-21T09:51:04;101810.38;;;7.83;100.00
29909;BME280;36247;51.952;6.146;2023-02-21T09:53:37;101811.19;;;7.82;100.00
29909;BME280;36247;51.952;6.146;2023-02-21T09:56:20;101806.09;;;7.85;100.00
29909;BME280;36247;51.952;6.146;2023-02-21T09:58:45;101804.28;;;7.84;100.00
29909;BME280;36247;51.952;6.146;2023-02-21T10:01:24;101806.84;;;7.83;100.00
29909;BME280;36247;51.952;6.146;2023-02-21T10:17:09;101800.25;;;7.94;100.00
29909;BME280;36247;51.952;6.146;2023-02-21T10:19:42;101807.22;;;7.92;100.00
29909;BME280;36247;51.952;6.146;2023-02-21T10:22:19;101807.28;;;7.93;100.00
29909;BME280;36247;51.952;6.146;2023-02-21T10:24:46;101805.78;;;8.00;100.00
29909;BME280;36247;51.952;6.146;2023-02-21T10:27:17;101810.09;;;7.98;100.00
29909;BME280;36247;51.952;6.146;2023-02-21T10:30:00;101813.50;;;7.95;100.00
29909;BME280;36247;51.952;6.146;2023-02-21T10:32:29;101820.81;;;8.03;100.00
29909;BME280;36247;51.952;6.146;2023-02-21T10:34:54;101817.72;;;7.90;100.00
29909;BME280;36247;51.952;6.146;2023-02-21T10:37:47;101812.66;;;7.97;100.00
29909;BME280;36247;51.952;6.146;2023-02-21T10:40:37;101814.06;;;8.09;100.00
29909;BME280;36247;51.952;6.146;2023-02-21T10:43:27;101805.91;;;8.03;100.00
29909;BME280;36247;51.952;6.146;2023-02-21T10:48:41;101812.16;;;8.05;100.00
29909;BME280;36247;51.952;6.146;2023-02-21T10:51:15;101812.91;;;8.03;100.00
29909;BME280;36247;51.952;6.146;2023-02-21T10:53:43;101812.84;;;8.01;100.00
29909;BME280;36247;51.952;6.146;2023-02-21T10:58:55;101810.97;;;8.20;100.00
29909;BME280;36247;51.952;6.146;2023-02-21T11:03:55;101813.97;;;8.06;100.00
29909;BME280;36247;51.952;6.146;2023-02-21T11:09:37;101814.84;;;8.07;100.00
29909;BME280;36247;51.952;6.146;2023-02-21T11:14:32;101816.88;;;8.14;100.00
29909;BME280;36247;51.952;6.146;2023-02-21T11:17:25;101817.66;;;8.11;100.00
29909;BME280;36247;51.952;6.146;2023-02-21T11:19:54;101815.78;;;8.09;100.00
29909;BME280;36247;51.952;6.146;2023-02-21T11:22:36;101821.75;;;8.26;100.00
29909;BME280;36247;51.952;6.146;2023-02-21T11:33:47;101815.56;;;8.03;100.00
29909;BME280;36247;51.952;6.146;2023-02-21T11:36:16;101820.28;;;7.89;100.00
29909;BME280;36247;51.952;6.146;2023-02-21T11:38:52;101807.03;;;7.87;100.00
29909;BME280;36247;51.952;6.146;2023-02-21T11:41:28;101808.50;;;7.81;100.00
29909;BME280;36247;51.952;6.146;2023-02-21T11:43:55;101804.78;;;7.75;100.00
29909;BME280;36247;51.952;6.146;2023-02-21T11:52:05;101803.16;;;7.79;100.00
29909;BME280;36247;51.952;6.146;2023-02-21T11:54:32;101792.75;;;7.82;100.00
29909;BME280;36247;51.952;6.146;2023-02-21T11:57:04;101798.75;;;7.78;100.00
29909;BME280;36247;51.952;6.146;2023-02-21T11:59:45;101792.75;;;7.82;100.00
29909;BME280;36247;51.952;6.146;2023-02-21T12:08:12;101804.34;;;7.65;100.00
29909;BME280;36247;51.952;6.146;2023-02-21T12:10:58;101789.50;;;7.67;100.00
29909;BME280;36247;51.952;6.146;2023-02-21T12:16:32;101788.41;;;7.62;100.00
29909;BME280;36247;51.952;6.146;2023-02-21T12:19:21;101802.38;;;7.59;100.00
29909;BME280;36247;51.952;6.146;2023-02-21T12:24:49;101791.69;;;7.56;100.00
29909;BME280;36247;51.952;6.146;2023-02-21T12:27:56;101787.75;;;7.67;100.00
29909;BME280;36247;51.952;6.146;2023-02-21T12:30:41;101789.31;;;7.62;100.00
29909;BME280;36247;51.952;6.146;2023-02-21T12:36:31;101776.41;;;7.70;100.00
29909;BME280;36247;51.952;6.146;2023-02-21T12:39:32;101776.59;;;7.74;100.00
29909;BME280;36247;51.952;6.146;2023-02-21T12:47:27;101758.84;;;7.91;100.00
29909;BME280;36247;51.952;6.146;2023-02-21T12:49:59;101759.13;;;7.76;100.00
29909;BME280;36247;51.952;6.146;2023-02-21T12:52:33;101760.66;;;7.71;100.00
29909;BME280;36247;51.952;6.146;2023-02-21T12:55:04;101759.19;;;7.78;100.00
29909;BME280;36247;51.952;6.146;2023-02-21T12:57:50;101749.69;;;7.83;100.00
29909;BME280;36247;51.952;6.146;2023-02-21T13:00:46;101745.41;;;7.85;100.00
29909;BME280;36247;51.952;6.146;2023-02-21T13:06:03;101739.44;;;7.91;100.00
29909;BME280;36247;51.952;6.146;2023-02-21T13:08:36;101740.72;;;8.01;100.00
29909;BME280;36247;51.952;6.146;2023-02-21T13:11:19;101735.50;;;8.02;100.00
29909;BME280;36247;51.952;6.146;2023-02-21T13:13:46;101736.94;;;8.17;100.00
29909;BME280;36247;51.952;6.146;2023-02-21T13:16:12;101732.19;;;8.08;100.00
29909;BME280;36247;51.952;6.146;2023-02-21T13:18:49;101730.63;;;8.13;100.00
29909;BME280;36247;51.952;6.146;2023-02-21T13:29:47;101722.03;;;8.19;100.00
29909;BME280;36247;51.952;6.146;2023-02-21T13:32:17;101714.00;;;8.16;100.00
29909;BME280;36247;51.952;6.146;2023-02-21T13:34:52;101708.63;;;8.12;100.00
29909;BME280;36247;51.952;6.146;2023-02-21T13:37:25;101710.59;;;8.18;100.00
29909;BME280;36247;51.952;6.146;2023-02-21T13:39:54;101710.44;;;8.14;100.00
29909;BME280;36247;51.952;6.146;2023-02-21T13:42:25;101705.53;;;8.24;100.00
29909;BME280;36247;51.952;6.146;2023-02-21T13:45:03;101709.84;;;8.22;100.00
29909;BME280;36247;51.952;6.146;2023-02-21T13:58:42;101703.63;;;8.20;100.00
29909;BME280;36247;51.952;6.146;2023-02-21T14:03:37;101704.56;;;8.22;100.00
29909;BME280;36247;51.952;6.146;2023-02-21T14:08:38;101699.22;;;8.21;100.00
29909;BME280;36247;51.952;6.146;2023-02-21T14:13:37;101692.19;;;8.20;100.00
29909;BME280;36247;51.952;6.146;2023-02-21T14:19:04;101694.13;;;8.25;100.00
29909;BME280;36247;51.952;6.146;2023-02-21T14:24:00;101698.28;;;8.19;100.00
29909;BME280;36247;51.952;6.146;2023-02-21T14:26:44;101702.78;;;8.21;100.00
29909;BME280;36247;51.952;6.146;2023-02-21T14:37:34;101701.81;;;8.19;100.00
29909;BME280;36247;51.952;6.146;2023-02-21T14:40:04;101700.75;;;8.14;100.00
29909;BME280;36247;51.952;6.146;2023-02-21T15:02:12;101679.31;;;8.29;100.00
29909;BME280;36247;51.952;6.146;2023-02-21T15:05:03;101680.09;;;8.26;100.00
29909;BME280;36247;51.952;6.146;2023-02-21T15:10:20;101676.28;;;8.18;100.00
29909;BME280;36247;51.952;6.146;2023-02-21T15:12:52;101678.88;;;8.17;100.00
29909;BME280;36247;51.952;6.146;2023-02-21T15:15:43;101671.13;;;8.21;100.00
29909;BME280;36247;51.952;6.146;2023-02-21T15:18:09;101677.50;;;8.28;100.00
29909;BME280;36247;51.952;6.146;2023-02-21T15:20:37;101670.34;;;8.25;100.00
29909;BME280;36247;51.952;6.146;2023-02-21T15:23:20;101670.41;;;8.27;100.00
29909;BME280;36247;51.952;6.146;2023-02-21T15:25:56;101668.59;;;8.24;100.00
29909;BME280;36247;51.952;6.146;2023-02-21T15:28:28;101666.59;;;8.19;100.00
29909;BME280;36247;51.952;6.146;2023-02-21T15:31:01;101667.72;;;8.25;100.00
29909;BME280;36247;51.952;6.146;2023-02-21T15:33:50;101664.34;;;8.29;100.00
29909;BME280;36247;51.952;6.146;2023-02-21T15:36:21;101672.16;;;8.26;100.00
29909;BME280;36247;51.952;6.146;2023-02-21T15:38:58;101660.94;;;8.32;100.00
29909;BME280;36247;51.952;6.146;2023-02-21T15:41:31;101665.84;;;8.21;100.00
29909;BME280;36247;51.952;6.146;2023-02-21T15:44:23;101658.06;;;8.26;100.00
29909;BME280;36247;51.952;6.146;2023-02-21T15:46:59;101658.81;;;8.22;100.00